createdAt,value
2023-03-23T16:00:23.739Z,58.98
2023-03-23T16:03:51.616Z,59.42
2023-03-23T16:07:17.764Z,59.68
2023-03-23T16:10:46.620Z,60.17
2023-03-23T16:14:12.733Z,60.53
2023-03-23T16:17:38.855Z,61.00
2023-03-23T16:21:07.331Z,61.26
2023-03-23T16:24:33.869Z,61.68
2023-03-23T16:27:59.890Z,62.08
2023-03-23T16:31:26.043Z,62.36
2023-03-23T16:35:15.688Z,62.81
2023-03-23T16:38:49.219Z,63.09
2023-03-23T16:42:17.087Z,63.48
2023-03-23T16:45:45.480Z,63.44
2023-03-23T16:49:11.365Z,63.42
2023-03-23T16:52:46.369Z,63.55
2023-03-23T16:56:13.419Z,63.60
2023-03-23T16:59:39.976Z,63.91
2023-03-23T17:03:06.179Z,64.10
2023-03-23T17:06:32.468Z,64.39
2023-03-23T17:09:58.363Z,64.75
2023-03-23T17:13:27.963Z,65.14
2023-03-23T17:16:58.949Z,65.43
2023-03-23T17:20:28.016Z,65.91
2023-03-23T17:23:54.542Z,66.57
2023-03-23T17:27:30.924Z,67.12
2023-03-23T17:30:56.920Z,67.83
2023-03-23T17:34:25.482Z,68.36
2023-03-23T17:37:53.717Z,68.90
2023-03-23T17:41:21.862Z,69.50
2023-03-23T17:44:49.592Z,69.60
2023-03-23T17:48:18.286Z,69.82
2023-03-23T17:51:45.663Z,70.07
2023-03-23T17:55:00.844Z,70.18
2023-03-23T17:58:06.906Z,70.36
2023-03-23T18:01:13.242Z,70.54
2023-03-23T18:04:22.656Z,70.75
2023-03-23T18:07:50.272Z,70.83
2023-03-23T18:11:09.329Z,70.86
2023-03-23T18:14:35.786Z,70.99
2023-03-23T18:18:22.178Z,71.08
2023-03-23T18:21:47.918Z,71.19
2023-03-23T18:25:14.170Z,71.10
2023-03-23T18:28:41.514Z,71.17
2023-03-23T18:32:08.549Z,71.19
2023-03-23T18:35:34.566Z,71.21
2023-03-23T18:39:00.528Z,71.29
2023-03-23T18:42:29.616Z,71.33
2023-03-23T18:45:57.534Z,71.49
2023-03-23T18:49:23.413Z,71.38
2023-03-23T18:53:52.803Z,71.45
2023-03-23T18:56:36.752Z,71.37
2023-03-23T19:00:04.745Z,71.70
2023-03-23T19:04:18.142Z,72.05
2023-03-23T19:07:20.020Z,72.30
2023-03-23T19:10:46.192Z,72.87
2023-03-23T19:14:13.721Z,73.07
2023-03-23T19:17:39.610Z,73.25
2023-03-23T19:21:14.974Z,73.81
2023-03-23T19:24:43.094Z,74.48
2023-03-23T19:31:39.862Z,75.10
2023-03-23T19:35:07.052Z,75.65
2023-03-23T19:38:33.026Z,76.01
2023-03-23T19:41:59.190Z,76.35
2023-03-23T19:45:26.373Z,76.83
2023-03-23T19:48:52.989Z,77.40
2023-03-23T19:52:19.228Z,77.61
2023-03-23T19:55:45.346Z,77.76
2023-03-23T19:59:14.957Z,78.00
2023-03-23T20:02:45.632Z,78.12
2023-03-23T20:06:12.432Z,78.74
2023-03-23T20:09:38.925Z,78.45
2023-03-23T20:13:06.043Z,78.83
2023-03-23T20:16:32.858Z,79.37
2023-03-23T20:19:58.935Z,79.16
2023-03-23T20:23:08.074Z,79.16
2023-03-23T20:26:14.699Z,79.27
2023-03-23T20:29:40.787Z,79.63
2023-03-23T20:33:07.751Z,79.54
2023-03-23T20:36:35.875Z,79.72
2023-03-23T20:40:01.752Z,80.05
2023-03-23T20:43:30.605Z,80.47
2023-03-23T20:46:56.358Z,80.52
2023-03-23T20:50:22.355Z,80.83
2023-03-23T20:53:48.633Z,81.32
2023-03-23T20:57:14.761Z,81.17
2023-03-23T21:00:42.190Z,81.53
2023-03-23T21:04:15.734Z,81.09
2023-03-23T21:07:42.780Z,81.00
2023-03-23T21:11:09.600Z,81.22
2023-03-23T21:14:35.447Z,81.00
2023-03-23T21:18:01.313Z,80.99
2023-03-23T21:21:28.304Z,81.17
2023-03-23T21:24:54.656Z,81.16
2023-03-23T21:28:20.644Z,81.66
2023-03-23T21:31:52.216Z,81.91
2023-03-23T21:35:27.072Z,81.78
2023-03-23T21:38:52.912Z,81.82
2023-03-23T21:42:18.883Z,81.83
2023-03-23T21:45:45.313Z,82.11
2023-03-23T21:49:14.507Z,82.04
2023-03-23T21:52:42.060Z,81.87
2023-03-23T21:56:09.976Z,82.20
2023-03-23T21:59:35.892Z,82.13
2023-03-23T22:03:02.679Z,82.04
2023-03-23T22:06:28.680Z,82.19
2023-03-23T22:09:55.122Z,82.65
2023-03-23T22:13:20.905Z,82.64
2023-03-23T22:16:46.872Z,82.64
2023-03-23T22:20:14.607Z,82.87
2023-03-23T22:23:41.804Z,82.68
2023-03-23T22:27:07.812Z,82.79
2023-03-23T22:30:34.011Z,82.91
2023-03-23T22:34:00.138Z,82.94
2023-03-23T22:37:26.147Z,83.04
2023-03-23T22:40:57.538Z,83.22
2023-03-23T22:44:23.242Z,83.20
2023-03-23T22:47:49.089Z,83.44
2023-03-23T22:51:15.976Z,83.28
2023-03-23T22:54:41.834Z,83.54
2023-03-23T22:58:07.724Z,83.35
2023-03-23T23:01:33.658Z,83.44
2023-03-23T23:04:59.570Z,83.44
2023-03-23T23:08:26.527Z,83.32
2023-03-23T23:11:52.398Z,83.41
2023-03-23T23:15:18.100Z,83.38
2023-03-23T23:18:43.915Z,83.34
2023-03-23T23:22:18.424Z,83.61
2023-03-23T23:25:46.394Z,84.14
2023-03-23T23:29:13.434Z,84.51
2023-03-23T23:32:39.528Z,85.10
2023-03-23T23:36:05.472Z,85.57
2023-03-23T23:39:31.558Z,85.15
2023-03-23T23:42:52.526Z,85.09
2023-03-23T23:46:18.219Z,85.61
2023-03-23T23:49:43.925Z,85.96
2023-03-23T23:53:10.988Z,86.23
2023-03-23T23:56:36.853Z,86.61
